createdAt,value
2019-03-28T00:00:27.513Z,26.7
2019-03-28T00:01:29.716Z,26.7
2019-03-28T00:02:32.213Z,26.9
2019-03-28T00:03:34.134Z,26.6
2019-03-28T00:04:36.621Z,26.7
2019-03-28T00:05:38.803Z,26.5
2019-03-28T00:06:41.015Z,26.5
2019-03-28T00:07:42.660Z,26.6
2019-03-28T00:08:44.591Z,26.7
2019-03-28T00:09:46.807Z,26.7
2019-03-28T00:10:49.289Z,26.8
2019-03-28T00:11:51.771Z,26.5
2019-03-28T00:12:53.987Z,26.7
2019-03-28T00:13:56.463Z,26.6
2019-03-28T00:14:58.411Z,26.9
2019-03-28T00:16:00.904Z,26.7
2019-03-28T00:17:03.384Z,26.7
2019-03-28T00:18:05.876Z,26.7
2019-03-28T00:19:08.084Z,26.7
2019-03-28T00:20:10.569Z,26.9
2019-03-28T00:21:12.745Z,26.6
2019-03-28T00:22:15.221Z,26.7
2019-03-28T00:23:18.345Z,26.7
2019-03-28T00:24:19.955Z,26.8
2019-03-28T00:25:22.968Z,26.6
2019-03-28T00:26:30.289Z,26.7
2019-03-28T00:27:29.894Z,26.9
2019-03-28T00:28:31.848Z,26.7
2019-03-28T00:29:34.329Z,26.7
2019-03-28T00:30:36.806Z,26.6
2019-03-28T00:31:39.298Z,26.9
2019-03-28T00:32:41.762Z,26.8
2019-03-28T00:33:44.418Z,26.7
2019-03-28T00:34:46.739Z,26.8
2019-03-28T00:35:49.207Z,26.9
2019-03-28T00:36:50.876Z,26.8
2019-03-28T00:37:53.085Z,26.9
2019-03-28T00:38:55.021Z,26.9
2019-03-28T00:39:57.188Z,26.7
2019-03-28T00:40:59.648Z,26.8
2019-03-28T00:42:01.574Z,26.9
2019-03-28T00:43:04.054Z,26.8
2019-03-28T00:44:06.523Z,27
2019-03-28T00:45:08.435Z,26.9
2019-03-28T00:46:10.909Z,27.1
2019-03-28T00:47:13.387Z,26.9
2019-03-28T00:48:15.287Z,26.9
2019-03-28T00:49:18.126Z,27.1
2019-03-28T00:50:20.155Z,26.9
2019-03-28T00:51:22.631Z,27.2
2019-03-28T00:52:25.671Z,27.2
2019-03-28T00:53:28.150Z,27
2019-03-28T00:54:30.628Z,27.1
2019-03-28T00:55:33.106Z,27.2
2019-03-28T00:56:45.189Z,27.2
2019-03-28T00:57:40.384Z,27.2
2019-03-28T00:58:42.604Z,27.3
2019-03-28T00:59:45.075Z,27.2
2019-03-28T01:00:47.275Z,27.2
2019-03-28T01:01:49.776Z,27.2
2019-03-28T01:02:52.264Z,27.2
2019-03-28T01:03:54.476Z,27.3
2019-03-28T01:04:56.970Z,27.3
2019-03-28T01:05:59.462Z,27.3
2019-03-28T01:07:01.666Z,27.3
2019-03-28T01:08:03.865Z,27.4
2019-03-28T01:09:05.787Z,27.2
2019-03-28T01:10:08.271Z,27.4
2019-03-28T01:11:10.494Z,27.4
2019-03-28T01:12:13.686Z,27.3
2019-03-28T01:13:16.178Z,27.3
2019-03-28T01:14:19.176Z,27.5
2019-03-28T01:15:21.374Z,27.4
2019-03-28T01:16:24.376Z,27.2
2019-03-28T01:17:26.855Z,27.6
2019-03-28T01:18:29.332Z,27.3
2019-03-28T01:19:31.236Z,27.4
2019-03-28T01:20:33.711Z,27.4
2019-03-28T01:21:35.924Z,27.3
2019-03-28T01:22:38.145Z,27.5
2019-03-28T01:23:40.334Z,27.5
2019-03-28T01:24:41.975Z,27.5
2019-03-28T01:25:44.445Z,27.5
2019-03-28T01:26:56.517Z,27.4
2019-03-28T01:27:51.905Z,27.6
2019-03-28T01:28:54.114Z,27.5
2019-03-28T01:29:57.224Z,27.4
2019-03-28T01:30:59.494Z,27.6
2019-03-28T01:32:02.354Z,27.5
2019-03-28T01:33:04.588Z,27.6
2019-03-28T01:34:06.537Z,27.3
2019-03-28T01:35:09.398Z,27.2
2019-03-28T01:36:11.897Z,27.4
2019-03-28T01:37:15.154Z,27.5
2019-03-28T01:38:17.619Z,27.5
2019-03-28T01:39:20.881Z,27.5
2019-03-28T01:40:23.215Z,27.4
2019-03-28T01:41:25.700Z,27.3
2019-03-28T01:42:27.915Z,27.6
2019-03-28T01:43:30.119Z,27.6
2019-03-28T01:44:32.626Z,27.4
2019-03-28T01:45:34.820Z,27.6
2019-03-28T01:46:37.006Z,27.6
2019-03-28T01:47:38.960Z,27.4
2019-03-28T01:48:41.435Z,27.6
2019-03-28T01:49:43.903Z,27.4
2019-03-28T01:50:46.374Z,27.4
2019-03-28T01:51:48.575Z,27.5
2019-03-28T01:52:51.051Z,27.6
2019-03-28T01:53:53.249Z,27.4
2019-03-28T01:54:55.731Z,27.4
2019-03-28T01:55:57.932Z,27.7
2019-03-28T01:57:10.191Z,27.6
2019-03-28T01:58:05.444Z,27.4
2019-03-28T01:59:07.622Z,27.7
2019-03-28T02:00:10.110Z,27.6
2019-03-28T02:01:13.405Z,27.7
2019-03-28T02:02:15.882Z,27.5
2019-03-28T02:03:17.807Z,27.8
2019-03-28T02:04:20.010Z,27.6
2019-03-28T02:05:22.205Z,27.5
2019-03-28T02:06:24.426Z,27.6
2019-03-28T02:07:26.620Z,27.4
2019-03-28T02:08:28.886Z,27.6
2019-03-28T02:09:31.083Z,27.6
2019-03-28T02:10:34.069Z,27.9
2019-03-28T02:11:36.550Z,27.6
2019-03-28T02:12:39.033Z,27.9
2019-03-28T02:13:41.513Z,27.8
2019-03-28T02:14:43.712Z,27.7
2019-03-28T02:15:46.175Z,27.6
2019-03-28T02:16:48.428Z,27.5
2019-03-28T02:17:50.612Z,27.6
2019-03-28T02:18:52.894Z,27.5
2019-03-28T02:19:56.145Z,27.5
2019-03-28T02:20:58.354Z,27.5
2019-03-28T02:22:01.740Z,27.5
2019-03-28T02:23:03.943Z,27.9
2019-03-28T02:24:05.873Z,27.7
2019-03-28T02:25:08.358Z,27.7
2019-03-28T02:26:10.844Z,27.5
2019-03-28T02:27:23.265Z,27.6
2019-03-28T02:28:18.004Z,27.7
2019-03-28T02:29:20.469Z,27.7
2019-03-28T02:30:22.653Z,27.6
2019-03-28T02:31:26.365Z,27.6
2019-03-28T02:32:28.301Z,27.7
2019-03-28T02:33:30.471Z,27.8
2019-03-28T02:34:32.945Z,27.7
2019-03-28T02:35:35.249Z,27.5
2019-03-28T02:36:37.425Z,27.7
2019-03-28T02:37:39.360Z,27.6
2019-03-28T02:38:41.583Z,27.7
2019-03-28T02:39:44.060Z,27.7
2019-03-28T02:40:46.530Z,28
2019-03-28T02:41:49.019Z,27.6
2019-03-28T02:42:51.481Z,27.8
2019-03-28T02:43:54.972Z,27.9
2019-03-28T02:44:57.160Z,27.7
2019-03-28T02:45:59.360Z,27.8
2019-03-28T02:47:01.855Z,27.8
2019-03-28T02:48:04.332Z,27.8
2019-03-28T02:49:06.839Z,28
2019-03-28T02:50:09.365Z,27.9
2019-03-28T02:51:12.357Z,27.6
2019-03-28T02:52:14.547Z,27.7
2019-03-28T02:53:17.026Z,27.9
2019-03-28T02:54:19.237Z,27.9
2019-03-28T02:55:21.719Z,27.5
2019-03-28T02:56:25.214Z,27.7
2019-03-28T02:57:39.996Z,27.9
2019-03-28T02:58:32.427Z,27.8
2019-03-28T02:59:34.624Z,27.9
2019-03-28T03:00:37.109Z,27.9
2019-03-28T03:01:38.734Z,27.6
2019-03-28T03:02:41.817Z,27.8
2019-03-28T03:03:44.304Z,27.8
2019-03-28T03:04:46.793Z,27.9
2019-03-28T03:05:49.272Z,27.8
2019-03-28T03:06:51.276Z,27.6
2019-03-28T03:07:53.496Z,27.6
2019-03-28T03:08:55.979Z,27.7
2019-03-28T03:09:58.207Z,27.9
2019-03-28T03:11:01.035Z,27.9
2019-03-28T03:12:03.261Z,27.9
2019-03-28T03:13:05.478Z,27.7
2019-03-28T03:14:07.682Z,27.7
2019-03-28T03:15:10.155Z,27.7
2019-03-28T03:16:12.628Z,27.6
2019-03-28T03:17:15.803Z,27.7
2019-03-28T03:18:21.338Z,27.8
2019-03-28T03:19:23.437Z,27.8
2019-03-28T03:20:26.775Z,27.9
2019-03-28T03:21:28.975Z,27.9
2019-03-28T03:22:31.149Z,27.9
2019-03-28T03:23:33.343Z,28
2019-03-28T03:24:35.828Z,27.9
2019-03-28T03:25:37.785Z,28
2019-03-28T03:26:40.095Z,28
2019-03-28T03:27:56.599Z,27.9
2019-03-28T03:28:47.665Z,27.9
2019-03-28T03:29:49.584Z,27.7
2019-03-28T03:30:52.068Z,27.7
2019-03-28T03:31:54.585Z,27.8
2019-03-28T03:32:56.835Z,27.8
2019-03-28T03:33:58.465Z,27.7
2019-03-28T03:35:01.949Z,27.9
2019-03-28T03:36:04.669Z,27.8
2019-03-28T03:37:06.865Z,28
2019-03-28T03:38:08.793Z,28
2019-03-28T03:39:11.274Z,27.9
2019-03-28T03:40:14.362Z,27.8
2019-03-28T03:41:16.838Z,27.7
2019-03-28T03:42:19.325Z,27.8
2019-03-28T03:43:23.022Z,27.8
2019-03-28T03:44:25.590Z,27.8
2019-03-28T03:45:27.789Z,27.8
2019-03-28T03:46:30.258Z,27.6
2019-03-28T03:47:32.739Z,27.6
2019-03-28T03:48:35.202Z,27.6
2019-03-28T03:49:37.763Z,27.6
2019-03-28T03:50:39.987Z,27.5
2019-03-28T03:51:46.328Z,27.7
2019-03-28T03:52:47.487Z,27.5
2019-03-28T03:53:49.959Z,27.5
2019-03-28T03:54:52.530Z,27.6
2019-03-28T03:55:54.731Z,27.8
2019-03-28T03:56:57.210Z,27.6
2019-03-28T03:58:14.157Z,27.7
2019-03-28T03:59:04.712Z,27.6
2019-03-28T04:00:06.929Z,27.6
2019-03-28T04:01:09.397Z,27.5
2019-03-28T04:02:11.571Z,27.6
2019-03-28T04:03:13.793Z,27.5
2019-03-28T04:04:15.990Z,27.7
2019-03-28T04:05:18.244Z,27.5
2019-03-28T04:06:20.734Z,27.4
2019-03-28T04:07:23.221Z,27.5
2019-03-28T04:08:26.922Z,27.6
2019-03-28T04:09:29.345Z,27.5
2019-03-28T04:10:31.544Z,27.5
2019-03-28T04:11:33.478Z,27.4
2019-03-28T04:12:36.173Z,27.4
2019-03-28T04:13:38.456Z,27.2
2019-03-28T04:14:40.696Z,27.3
2019-03-28T04:15:43.177Z,27.3
2019-03-28T04:16:45.659Z,27.2
2019-03-28T04:17:48.146Z,27.2
2019-03-28T04:18:50.787Z,27.3
2019-03-28T04:19:52.986Z,27.2
2019-03-28T04:20:54.903Z,27.3
2019-03-28T04:21:57.407Z,27.3
2019-03-28T04:22:59.616Z,27.2
2019-03-28T04:24:01.830Z,27.2
2019-03-28T04:25:04.348Z,27
2019-03-28T04:26:06.828Z,27
2019-03-28T04:27:09.082Z,27.1
2019-03-28T04:28:11.292Z,27
2019-03-28T04:29:18.503Z,27
2019-03-28T04:30:20.702Z,27.1
2019-03-28T04:31:23.989Z,27
2019-03-28T04:32:26.478Z,27.1
2019-03-28T04:33:28.684Z,27
2019-03-28T04:34:31.197Z,27.1
2019-03-28T04:35:33.467Z,27
2019-03-28T04:36:35.408Z,27.1
2019-03-28T04:37:37.913Z,27
2019-03-28T04:38:40.125Z,27
2019-03-28T04:39:42.675Z,27
2019-03-28T04:40:45.154Z,27
2019-03-28T04:41:47.359Z,27
2019-03-28T04:42:50.560Z,26.9
2019-03-28T04:43:55.761Z,26.8
2019-03-28T04:44:58.045Z,26.9
2019-03-28T04:46:00.242Z,27
2019-03-28T04:47:02.717Z,26.9
2019-03-28T04:48:05.194Z,27
2019-03-28T04:49:07.387Z,27.1
2019-03-28T04:50:09.286Z,27.1
2019-03-28T04:51:12.390Z,27
2019-03-28T04:52:14.852Z,27
2019-03-28T04:53:17.320Z,26.9
2019-03-28T04:54:19.808Z,26.9
2019-03-28T04:55:22.290Z,27
2019-03-28T04:56:24.502Z,26.9
2019-03-28T04:57:26.996Z,26.8
2019-03-28T04:58:30.134Z,26.9
2019-03-28T04:59:35.608Z,27.1
2019-03-28T05:00:37.240Z,27
2019-03-28T05:01:39.727Z,26.7
2019-03-28T05:02:42.215Z,27.1
2019-03-28T05:03:47.696Z,26.8
2019-03-28T05:04:50.624Z,27
2019-03-28T05:05:52.841Z,26.8
2019-03-28T05:06:55.326Z,26.7
2019-03-28T05:07:57.837Z,26.9
2019-03-28T05:08:59.858Z,26.9
2019-03-28T05:10:02.376Z,26.8
2019-03-28T05:11:04.567Z,26.8
2019-03-28T05:12:07.856Z,26.9
2019-03-28T05:13:10.322Z,26.7
2019-03-28T05:14:12.259Z,26.9
2019-03-28T05:15:14.466Z,26.9
2019-03-28T05:16:16.684Z,26.9
2019-03-28T05:17:19.185Z,26.8
2019-03-28T05:18:21.660Z,26.8
2019-03-28T05:19:24.127Z,26.8
2019-03-28T05:20:26.604Z,26.8
2019-03-28T05:21:28.807Z,26.9
2019-03-28T05:22:31.980Z,26.8
2019-03-28T05:23:34.183Z,26.9
2019-03-28T05:24:36.650Z,26.8
2019-03-28T05:25:39.454Z,26.9
2019-03-28T05:26:41.502Z,26.9
2019-03-28T05:27:43.967Z,26.9
2019-03-28T05:28:56.848Z,26.9
2019-03-28T05:29:52.215Z,27.1
2019-03-28T05:30:54.178Z,26.8
2019-03-28T05:31:56.648Z,26.7
2019-03-28T05:32:59.122Z,26.8
2019-03-28T05:34:01.038Z,26.7
2019-03-28T05:35:03.505Z,26.8
2019-03-28T05:36:06.047Z,26.8
2019-03-28T05:37:08.256Z,27
2019-03-28T05:38:11.209Z,26.8
2019-03-28T05:39:13.693Z,27
2019-03-28T05:40:16.183Z,26.6
2019-03-28T05:41:18.420Z,26.7
2019-03-28T05:42:20.605Z,26.6
2019-03-28T05:43:23.067Z,26.9
2019-03-28T05:44:25.250Z,26.7
2019-03-28T05:45:27.792Z,27
2019-03-28T05:46:30.254Z,26.6
2019-03-28T05:47:32.725Z,26.8
2019-03-28T05:48:34.941Z,26.9
2019-03-28T05:49:37.149Z,26.8
2019-03-28T05:50:39.628Z,26.9
2019-03-28T05:51:41.559Z,26.7
2019-03-28T05:52:43.757Z,26.8
2019-03-28T05:53:46.537Z,26.7
2019-03-28T05:54:48.770Z,26.6
2019-03-28T05:55:50.981Z,26.7
2019-03-28T05:56:53.193Z,26.7
2019-03-28T05:57:55.674Z,26.8
2019-03-28T05:59:10.072Z,26.6
2019-03-28T06:00:03.147Z,26.7
2019-03-28T06:01:05.571Z,26.6
2019-03-28T06:02:08.788Z,26.9
2019-03-28T06:03:11.284Z,26.8
2019-03-28T06:04:13.490Z,26.7
2019-03-28T06:05:15.959Z,26.8
2019-03-28T06:06:18.596Z,26.8
2019-03-28T06:07:21.084Z,26.6
2019-03-28T06:08:23.286Z,26.8
2019-03-28T06:09:25.487Z,26.8
2019-03-28T06:10:27.973Z,26.8
2019-03-28T06:11:30.445Z,26.8
2019-03-28T06:12:32.928Z,26.7
2019-03-28T06:13:34.877Z,26.8
2019-03-28T06:14:37.105Z,26.8
2019-03-28T06:15:40.987Z,26.8
2019-03-28T06:16:43.645Z,26.9
2019-03-28T06:17:45.862Z,26.9
2019-03-28T06:18:48.343Z,26.8
2019-03-28T06:19:50.840Z,26.7
2019-03-28T06:20:52.730Z,26.7
2019-03-28T06:21:55.944Z,26.8
2019-03-28T06:22:58.428Z,26.7
2019-03-28T06:24:00.898Z,26.8
2019-03-28T06:25:05.696Z,26.6
2019-03-28T06:26:08.080Z,26.9
2019-03-28T06:27:10.285Z,26.7
2019-03-28T06:28:12.747Z,26.6
2019-03-28T06:29:23.488Z,26.9
2019-03-28T06:30:19.947Z,26.7
2019-03-28T06:31:22.116Z,26.9
2019-03-28T06:32:24.595Z,26.8
2019-03-28T06:33:26.536Z,26.7
2019-03-28T06:34:29.010Z,26.7
2019-03-28T06:35:31.473Z,26.9
2019-03-28T06:36:33.413Z,26.8
2019-03-28T06:37:35.609Z,26.6
2019-03-28T06:38:37.812Z,26.7
2019-03-28T06:39:40.028Z,26.7
2019-03-28T06:40:41.995Z,26.9
2019-03-28T06:41:44.517Z,26.8
2019-03-28T06:42:47.000Z,26.7
2019-03-28T06:43:49.197Z,26.6
2019-03-28T06:44:51.676Z,26.6
2019-03-28T06:45:53.866Z,26.6
2019-03-28T06:46:56.341Z,26.7
2019-03-28T06:47:58.826Z,26.8
2019-03-28T06:49:01.297Z,27
2019-03-28T06:50:03.472Z,26.9
2019-03-28T06:51:05.943Z,26.5
2019-03-28T06:52:08.415Z,26.7
2019-03-28T06:53:10.896Z,26.9
2019-03-28T06:54:14.125Z,26.7
2019-03-28T06:55:16.587Z,26.7
2019-03-28T06:56:19.074Z,26.7
2019-03-28T06:57:21.565Z,26.5
2019-03-28T06:58:23.545Z,26.7
2019-03-28T06:59:36.499Z,26.7
2019-03-28T07:00:31.033Z,26.9
2019-03-28T07:01:33.515Z,26.6
2019-03-28T07:02:36.008Z,26.7
2019-03-28T07:03:38.467Z,26.8
2019-03-28T07:04:40.723Z,26.9
2019-03-28T07:05:42.902Z,26.7
2019-03-28T07:06:45.384Z,26.5
2019-03-28T07:07:47.864Z,26.6
2019-03-28T07:08:51.241Z,26.8
2019-03-28T07:09:53.767Z,26.9
2019-03-28T07:10:57.972Z,26.7
2019-03-28T07:12:00.325Z,27
2019-03-28T07:13:02.794Z,26.8
2019-03-28T07:14:05.275Z,26.6
2019-03-28T07:15:07.749Z,26.5
2019-03-28T07:16:09.974Z,26.7
2019-03-28T07:17:12.478Z,26.7
2019-03-28T07:18:14.946Z,26.6
2019-03-28T07:19:17.196Z,26.5
2019-03-28T07:20:19.106Z,26.5
2019-03-28T07:21:21.035Z,26.7
2019-03-28T07:22:23.505Z,26.8
2019-03-28T07:23:25.975Z,26.6
2019-03-28T07:24:28.444Z,26.8
2019-03-28T07:25:30.647Z,26.5
2019-03-28T07:26:33.113Z,26.5
2019-03-28T07:27:35.590Z,26.6
2019-03-28T07:28:38.074Z,26.5
2019-03-28T07:29:50.044Z,26.7
2019-03-28T07:30:45.421Z,26.6
2019-03-28T07:31:48.040Z,26.6
2019-03-28T07:32:50.528Z,26.5
2019-03-28T07:33:52.735Z,26.5
2019-03-28T07:34:54.954Z,26.7
2019-03-28T07:35:57.465Z,26.6
2019-03-28T07:36:59.689Z,26.7
2019-03-28T07:38:02.191Z,26.7
2019-03-28T07:39:04.098Z,26.5
2019-03-28T07:40:06.304Z,26.6
2019-03-28T07:41:08.524Z,26.7
2019-03-28T07:42:10.453Z,26.7
2019-03-28T07:43:12.995Z,26.6
2019-03-28T07:44:15.202Z,26.7
2019-03-28T07:45:17.376Z,26.7
2019-03-28T07:46:19.283Z,26.9
2019-03-28T07:47:21.771Z,26.6
2019-03-28T07:48:24.053Z,26.7
2019-03-28T07:49:26.343Z,26.7
2019-03-28T07:50:28.812Z,26.6
2019-03-28T07:51:35.274Z,26.7
2019-03-28T07:52:37.472Z,26.7
2019-03-28T07:53:39.948Z,26.7
2019-03-28T07:54:42.194Z,26.6
2019-03-28T07:55:44.387Z,26.7
2019-03-28T07:56:46.867Z,26.7
2019-03-28T07:57:49.854Z,26.6
2019-03-28T07:58:52.048Z,26.7
2019-03-28T08:00:03.800Z,26.7
2019-03-28T08:00:59.505Z,26.6
2019-03-28T08:02:02.011Z,26.8
2019-03-28T08:03:03.936Z,26.7
2019-03-28T08:04:06.401Z,26.5
2019-03-28T08:05:08.970Z,26.8
2019-03-28T08:06:12.695Z,26.6
2019-03-28T08:07:15.187Z,26.7
2019-03-28T08:08:17.805Z,26.8
2019-03-28T08:09:20.267Z,26.7
2019-03-28T08:10:22.196Z,26.4
2019-03-28T08:11:24.783Z,26.7
2019-03-28T08:12:27.745Z,26.7
2019-03-28T08:13:31.228Z,26.5
2019-03-28T08:14:33.437Z,26.7
2019-03-28T08:15:35.614Z,26.7
2019-03-28T08:16:38.108Z,26.7
2019-03-28T08:17:40.585Z,26.5
2019-03-28T08:18:43.062Z,26.7
2019-03-28T08:19:46.461Z,26.6
2019-03-28T08:20:48.933Z,26.6
2019-03-28T08:21:51.409Z,26.7
2019-03-28T08:22:53.375Z,26.8
2019-03-28T08:23:55.561Z,26.6
2019-03-28T08:24:58.023Z,26.7
2019-03-28T08:26:00.235Z,26.7
2019-03-28T08:27:02.712Z,26.7
2019-03-28T08:28:05.180Z,26.8
2019-03-28T08:29:07.393Z,26.8
2019-03-28T08:30:17.896Z,26.7
2019-03-28T08:31:15.032Z,26.7
2019-03-28T08:32:17.777Z,26.6
2019-03-28T08:33:20.365Z,26.5
2019-03-28T08:34:22.599Z,26.7
2019-03-28T08:35:25.083Z,26.8
2019-03-28T08:36:27.576Z,26.7
2019-03-28T08:37:30.047Z,26.5
2019-03-28T08:38:32.868Z,26.7
2019-03-28T08:39:35.223Z,26.7
2019-03-28T08:40:39.555Z,26.7
2019-03-28T08:41:42.383Z,26.5
2019-03-28T08:42:44.934Z,26.7
2019-03-28T08:43:48.055Z,26.6
2019-03-28T08:44:50.529Z,26.7
2019-03-28T08:45:52.743Z,26.5
2019-03-28T08:46:55.220Z,26.5
2019-03-28T08:47:57.696Z,26.3
2019-03-28T08:49:00.192Z,26.7
2019-03-28T08:50:02.406Z,26.5
2019-03-28T08:51:04.890Z,26.6
2019-03-28T08:52:06.843Z,26.9
2019-03-28T08:53:13.297Z,26.8
2019-03-28T08:54:15.527Z,26.5
2019-03-28T08:55:18.066Z,26.8
2019-03-28T08:56:20.108Z,26.8
2019-03-28T08:57:22.625Z,26.5
2019-03-28T08:58:25.093Z,26.6
2019-03-28T08:59:27.585Z,26.5
2019-03-28T09:00:33.303Z,26.7
2019-03-28T09:01:36.573Z,26.5
2019-03-28T09:02:39.135Z,26.7
2019-03-28T09:03:41.619Z,26.6
2019-03-28T09:04:44.136Z,26.7
2019-03-28T09:05:46.613Z,26.6
2019-03-28T09:06:49.095Z,26.6
2019-03-28T09:07:51.386Z,26.7
2019-03-28T09:08:53.877Z,26.7
2019-03-28T09:09:56.370Z,26.6
2019-03-28T09:10:58.849Z,26.6
2019-03-28T09:12:01.076Z,26.6
2019-03-28T09:13:03.257Z,26.7
2019-03-28T09:14:05.511Z,26.7
2019-03-28T09:15:07.977Z,26.6
2019-03-28T09:16:10.474Z,26.5
2019-03-28T09:17:12.694Z,26.4
2019-03-28T09:18:15.185Z,26.5
2019-03-28T09:19:17.403Z,26.6
2019-03-28T09:20:19.867Z,26.6
2019-03-28T09:21:22.064Z,26.5
2019-03-28T09:22:24.538Z,26.6
2019-03-28T09:23:27.037Z,26.6
2019-03-28T09:24:29.527Z,26.6
2019-03-28T09:25:31.992Z,26.5
2019-03-28T09:26:34.465Z,26.8
2019-03-28T09:27:36.686Z,26.5
2019-03-28T09:28:38.892Z,26.6
2019-03-28T09:29:41.101Z,26.6
2019-03-28T09:30:48.375Z,26.5
2019-03-28T09:31:48.305Z,26.5
2019-03-28T09:32:50.503Z,26.6
2019-03-28T09:33:52.728Z,26.5
2019-03-28T09:34:55.205Z,26.6
2019-03-28T09:35:57.694Z,26.7
2019-03-28T09:36:59.905Z,26.7
2019-03-28T09:38:02.113Z,26.7
2019-03-28T09:39:04.595Z,26.8
2019-03-28T09:40:06.485Z,26.5
2019-03-28T09:41:08.957Z,26.5
2019-03-28T09:42:11.435Z,26.6
2019-03-28T09:43:13.915Z,26.5
2019-03-28T09:44:16.126Z,26.7
2019-03-28T09:45:18.603Z,26.6
2019-03-28T09:46:20.574Z,26.7
2019-03-28T09:47:22.771Z,26.8
2019-03-28T09:48:25.253Z,26.7
2019-03-28T09:49:26.902Z,26.6
2019-03-28T09:50:29.396Z,26.4
2019-03-28T09:51:31.616Z,26.5
2019-03-28T09:52:37.583Z,26.6
2019-03-28T09:53:40.076Z,26.6
2019-03-28T09:54:42.284Z,26.7
2019-03-28T09:55:44.456Z,26.6
2019-03-28T09:56:46.959Z,26.7
2019-03-28T09:57:49.435Z,26.5
2019-03-28T09:58:51.619Z,26.6
2019-03-28T09:59:54.091Z,26.6
2019-03-28T10:01:02.410Z,26.5
2019-03-28T10:02:01.416Z,26.8
2019-03-28T10:03:05.159Z,26.6
2019-03-28T10:04:07.355Z,26.7
2019-03-28T10:05:09.567Z,26.5
2019-03-28T10:06:12.035Z,26.8
2019-03-28T10:07:13.975Z,26.6
2019-03-28T10:08:16.447Z,26.7
2019-03-28T10:09:18.437Z,26.6
2019-03-28T10:10:20.899Z,26.7
2019-03-28T10:11:23.388Z,26.7
2019-03-28T10:12:25.851Z,26.6
2019-03-28T10:13:28.336Z,26.6
2019-03-28T10:14:30.813Z,26.7
2019-03-28T10:15:36.564Z,26.6
2019-03-28T10:16:40.298Z,26.8
2019-03-28T10:17:42.651Z,26.8
2019-03-28T10:18:45.111Z,26.6
2019-03-28T10:19:48.532Z,26.7
2019-03-28T10:20:50.999Z,26.7
2019-03-28T10:21:53.487Z,26.7
2019-03-28T10:22:55.458Z,26.9
2019-03-28T10:23:57.935Z,26.6
2019-03-28T10:25:00.165Z,26.6
2019-03-28T10:26:02.754Z,26.6
2019-03-28T10:27:05.220Z,26.7
2019-03-28T10:28:07.689Z,26.7
2019-03-28T10:29:10.171Z,26.9
2019-03-28T10:30:12.455Z,26.8
2019-03-28T10:31:16.539Z,26.7
2019-03-28T10:32:19.323Z,26.7
2019-03-28T10:33:21.524Z,26.7
2019-03-28T10:34:25.157Z,26.6
2019-03-28T10:35:27.625Z,26.8
2019-03-28T10:36:29.797Z,26.6
2019-03-28T10:37:32.286Z,26.7
2019-03-28T10:38:34.748Z,26.5
2019-03-28T10:39:36.960Z,26.9
2019-03-28T10:40:39.442Z,26.7
2019-03-28T10:41:41.901Z,26.6
2019-03-28T10:42:44.115Z,26.6
2019-03-28T10:43:46.296Z,26.7
2019-03-28T10:44:48.209Z,26.9
2019-03-28T10:45:50.693Z,26.8
2019-03-28T10:46:53.174Z,26.7
2019-03-28T10:47:55.395Z,26.7
2019-03-28T10:48:57.877Z,26.7
2019-03-28T10:50:03.614Z,26.7
2019-03-28T10:51:05.337Z,26.7
2019-03-28T10:52:07.513Z,26.8
2019-03-28T10:53:13.473Z,26.6
2019-03-28T10:54:20.266Z,26.9
2019-03-28T10:55:20.964Z,26.8
2019-03-28T10:56:24.152Z,26.8
2019-03-28T10:57:30.769Z,26.8
2019-03-28T10:58:34.805Z,27
2019-03-28T10:59:36.967Z,26.7
2019-03-28T11:00:39.447Z,26.5
2019-03-28T11:01:49.873Z,26.9
2019-03-28T11:02:46.949Z,26.5
2019-03-28T11:03:49.498Z,26.7
2019-03-28T11:04:51.989Z,27.1
2019-03-28T11:05:54.471Z,26.7
2019-03-28T11:06:56.936Z,27
2019-03-28T11:08:00.518Z,26.5
2019-03-28T11:09:02.986Z,26.9
2019-03-28T11:10:05.487Z,26.8
2019-03-28T11:11:08.058Z,26.7
2019-03-28T11:12:10.531Z,27
2019-03-28T11:13:13.004Z,26.8
2019-03-28T11:14:15.475Z,26.8
2019-03-28T11:15:17.945Z,26.6
2019-03-28T11:16:20.411Z,26.8
2019-03-28T11:17:22.881Z,26.7
2019-03-28T11:18:25.367Z,26.8
2019-03-28T11:19:27.835Z,26.9
2019-03-28T11:20:30.015Z,26.7
2019-03-28T11:21:34.269Z,26.9
2019-03-28T11:22:36.282Z,26.8
2019-03-28T11:23:38.770Z,26.9
2019-03-28T11:24:41.234Z,26.8
2019-03-28T11:25:47.692Z,26.8
2019-03-28T11:26:50.149Z,26.6
2019-03-28T11:27:52.724Z,26.7
2019-03-28T11:28:55.290Z,26.8
2019-03-28T11:29:57.175Z,26.8
2019-03-28T11:31:00.541Z,26.5
2019-03-28T11:32:02.759Z,26.5
2019-03-28T11:33:06.493Z,26.7
2019-03-28T11:34:08.824Z,26.8
2019-03-28T11:35:11.322Z,26.7
2019-03-28T11:36:13.986Z,26.6
2019-03-28T11:37:25.693Z,26.9
2019-03-28T11:38:21.194Z,26.8
2019-03-28T11:39:23.594Z,26.5
2019-03-28T11:40:26.066Z,26.9
2019-03-28T11:41:28.548Z,26.8
2019-03-28T11:42:31.030Z,26.5
2019-03-28T11:43:33.634Z,26.7
2019-03-28T11:44:35.844Z,26.6
2019-03-28T11:45:38.328Z,26.7
2019-03-28T11:46:40.837Z,26.8
2019-03-28T11:47:43.034Z,26.7
2019-03-28T11:48:45.515Z,26.7
2019-03-28T11:49:47.982Z,26.7
2019-03-28T11:50:50.462Z,26.5
2019-03-28T11:51:52.939Z,26.7
2019-03-28T11:52:55.476Z,26.5
2019-03-28T11:53:57.959Z,26.7
2019-03-28T11:55:00.424Z,26.6
2019-03-28T11:56:02.972Z,26.6
2019-03-28T11:57:05.186Z,26.7
2019-03-28T11:58:07.674Z,26.7
2019-03-28T11:59:10.171Z,26.6
2019-03-28T12:00:12.380Z,26.5
2019-03-28T12:01:14.936Z,26.7
2019-03-28T12:02:19.931Z,26.6
2019-03-28T12:03:22.128Z,26.6
2019-03-28T12:04:24.604Z,26.5
2019-03-28T12:05:26.840Z,26.6
2019-03-28T12:06:29.320Z,26.6
2019-03-28T12:07:31.254Z,26.6
2019-03-28T12:08:33.458Z,26.7
2019-03-28T12:09:35.656Z,26.7
2019-03-28T12:10:39.064Z,26.7
2019-03-28T12:11:40.978Z,26.8
2019-03-28T12:12:43.178Z,26.6
2019-03-28T12:13:45.442Z,26.6
2019-03-28T12:14:47.643Z,26.8
2019-03-28T12:15:50.832Z,26.6
2019-03-28T12:16:53.385Z,26.7
2019-03-28T12:17:55.867Z,26.6
2019-03-28T12:18:58.367Z,26.6
2019-03-28T12:20:00.414Z,26.6
2019-03-28T12:21:02.913Z,26.7
2019-03-28T12:22:05.106Z,26.7
2019-03-28T12:23:07.623Z,26.6
2019-03-28T12:24:10.113Z,26.6
2019-03-28T12:25:12.299Z,26.4
2019-03-28T12:26:14.244Z,26.8
2019-03-28T12:27:16.440Z,26.6
2019-03-28T12:28:18.377Z,26.5
2019-03-28T12:29:20.850Z,26.8
2019-03-28T12:30:24.427Z,26.5
2019-03-28T12:31:26.911Z,26.5
2019-03-28T12:32:29.400Z,26.4
2019-03-28T12:33:31.903Z,26.6
2019-03-28T12:34:34.103Z,26.7
2019-03-28T12:35:36.605Z,26.5
2019-03-28T12:36:39.118Z,26.5
2019-03-28T12:37:41.598Z,26.5
2019-03-28T12:38:44.067Z,26.5
2019-03-28T12:39:46.666Z,26.6
2019-03-28T12:40:49.029Z,26.7
2019-03-28T12:41:51.542Z,26.7
2019-03-28T12:42:54.022Z,26.7
2019-03-28T12:43:55.983Z,26.7
2019-03-28T12:44:58.987Z,26.6
2019-03-28T12:46:01.562Z,26.6
2019-03-28T12:47:04.134Z,26.7
2019-03-28T12:48:06.654Z,26.5
2019-03-28T12:49:09.133Z,26.5
2019-03-28T12:50:11.629Z,26.5
2019-03-28T12:51:14.125Z,26.5
2019-03-28T12:52:16.342Z,26.4
2019-03-28T12:53:19.600Z,26.5
2019-03-28T12:54:22.086Z,26.6
2019-03-28T12:55:24.039Z,26.5
2019-03-28T12:56:26.622Z,26.6
2019-03-28T12:57:29.205Z,26.5
2019-03-28T12:58:32.658Z,26.5
2019-03-28T12:59:35.121Z,26.7
2019-03-28T13:00:37.096Z,26.5
2019-03-28T13:01:39.561Z,26.7
2019-03-28T13:02:41.778Z,26.6
2019-03-28T13:03:45.624Z,26.6
2019-03-28T13:04:48.709Z,26.7
2019-03-28T13:05:50.624Z,26.6
2019-03-28T13:06:52.861Z,26.6
2019-03-28T13:07:55.349Z,26.5
2019-03-28T13:08:57.846Z,26.5
2019-03-28T13:10:00.027Z,26.5
2019-03-28T13:11:03.591Z,26.7
2019-03-28T13:12:06.081Z,26.7
2019-03-28T13:13:08.628Z,26.6
2019-03-28T13:14:10.847Z,26.9
2019-03-28T13:15:13.600Z,26.7
2019-03-28T13:16:15.832Z,26.7
2019-03-28T13:17:18.315Z,26.6
2019-03-28T13:18:20.822Z,26.5
2019-03-28T13:19:23.193Z,26.6
2019-03-28T13:20:25.138Z,26.6
2019-03-28T13:21:27.321Z,26.5
2019-03-28T13:22:29.504Z,26.9
2019-03-28T13:23:31.976Z,26.7
2019-03-28T13:24:34.458Z,26.6
2019-03-28T13:25:36.943Z,26.6
2019-03-28T13:26:39.429Z,26.5
2019-03-28T13:27:41.624Z,26.5
2019-03-28T13:28:43.827Z,26.6
2019-03-28T13:29:46.025Z,26.5
2019-03-28T13:30:47.966Z,26.7
2019-03-28T13:31:50.460Z,26.5
2019-03-28T13:32:52.932Z,26.6
2019-03-28T13:33:55.134Z,26.7
2019-03-28T13:34:57.606Z,26.6
2019-03-28T13:35:59.824Z,26.7
2019-03-28T13:37:02.296Z,26.7
2019-03-28T13:38:04.492Z,26.7
2019-03-28T13:39:06.693Z,26.7
2019-03-28T13:40:09.170Z,26.8
2019-03-28T13:41:11.648Z,26.6
2019-03-28T13:42:14.136Z,26.5
2019-03-28T13:43:16.347Z,26.7
2019-03-28T13:44:18.828Z,26.8
2019-03-28T13:45:21.309Z,26.6
2019-03-28T13:46:23.783Z,26.6
2019-03-28T13:47:26.261Z,26.6
2019-03-28T13:48:28.737Z,26.6
2019-03-28T13:49:31.213Z,26.6
2019-03-28T13:50:33.710Z,26.6
2019-03-28T13:51:36.205Z,26.7
2019-03-28T13:52:38.677Z,26.6
2019-03-28T13:53:40.883Z,26.7
2019-03-28T13:54:43.082Z,26.7